createdAt,value
2022-11-03T00:01:12.319Z,5.10
2022-11-03T00:03:40.362Z,5.10
2022-11-03T00:06:10.086Z,5.00
2022-11-03T00:08:39.436Z,5.00
2022-11-03T00:11:09.141Z,5.00
2022-11-03T00:13:37.587Z,5.00
2022-11-03T00:16:06.227Z,5.00
2022-11-03T00:18:34.343Z,5.00
2022-11-03T00:21:03.079Z,4.90
2022-11-03T00:23:33.174Z,5.00
2022-11-03T00:26:08.937Z,4.90
2022-11-03T00:28:37.382Z,4.90
2022-11-03T00:31:08.199Z,4.90
2022-11-03T00:33:36.458Z,4.90
2022-11-03T00:36:04.583Z,4.80
2022-11-03T00:38:34.004Z,4.80
2022-11-03T00:41:03.306Z,4.70
2022-11-03T00:43:32.071Z,4.70
2022-11-03T00:46:00.130Z,4.70
2022-11-03T00:48:31.030Z,4.70
2022-11-03T00:51:03.130Z,4.70
2022-11-03T00:53:31.491Z,4.70
2022-11-03T00:56:01.115Z,4.70
2022-11-03T00:58:29.226Z,4.70
2022-11-03T01:01:01.649Z,4.60
2022-11-03T01:03:29.753Z,4.70
2022-11-03T01:06:15.177Z,4.60
2022-11-03T01:08:43.206Z,4.60
2022-11-03T01:11:31.259Z,4.60
2022-11-03T01:13:59.575Z,4.60
2022-11-03T01:16:27.919Z,4.60
2022-11-03T01:18:56.143Z,4.60
2022-11-03T01:21:24.325Z,4.60
2022-11-03T01:23:52.415Z,4.60
2022-11-03T01:26:21.792Z,4.60
2022-11-03T01:28:49.863Z,4.50
2022-11-03T01:31:18.627Z,4.50
2022-11-03T01:33:47.013Z,4.50
2022-11-03T01:36:15.401Z,4.50
2022-11-03T01:38:43.555Z,4.50
2022-11-03T01:41:12.499Z,4.50
2022-11-03T01:43:41.849Z,4.50
2022-11-03T01:46:13.788Z,4.40
2022-11-03T01:48:43.449Z,4.40
2022-11-03T01:51:11.483Z,4.40
2022-11-03T01:53:41.463Z,4.40
2022-11-03T01:56:09.570Z,4.40
2022-11-03T01:58:38.517Z,4.40
2022-11-03T02:01:07.937Z,4.40
2022-11-03T02:03:37.155Z,4.40
2022-11-03T02:06:05.379Z,4.40
2022-11-03T02:08:36.857Z,4.40
2022-11-03T02:11:25.348Z,4.30
2022-11-03T02:13:53.408Z,4.30
2022-11-03T02:16:22.943Z,4.30
2022-11-03T02:18:50.970Z,4.30
2022-11-03T02:21:25.034Z,4.30
2022-11-03T02:23:56.482Z,4.30
2022-11-03T02:26:39.736Z,4.30
2022-11-03T02:29:07.754Z,4.30
2022-11-03T02:31:38.832Z,4.30
2022-11-03T02:34:09.071Z,4.30
2022-11-03T02:36:38.791Z,4.30
2022-11-03T02:39:10.281Z,4.30
2022-11-03T02:41:39.640Z,4.30
2022-11-03T02:44:08.877Z,4.20
2022-11-03T02:46:36.869Z,4.20
2022-11-03T02:49:05.041Z,4.20
2022-11-03T02:51:33.147Z,4.20
2022-11-03T02:54:04.754Z,4.20
2022-11-03T02:56:32.837Z,4.20
2022-11-03T02:59:03.381Z,4.20
2022-11-03T03:01:34.942Z,4.20
2022-11-03T03:04:05.291Z,4.10
2022-11-03T03:06:34.812Z,4.20
2022-11-03T03:09:04.421Z,4.20
2022-11-03T03:11:38.985Z,4.20
2022-11-03T03:14:10.812Z,4.20
2022-11-03T03:16:47.472Z,4.20
2022-11-03T03:19:21.653Z,4.20
2022-11-03T03:21:49.672Z,4.20
2022-11-03T03:24:21.150Z,4.30
2022-11-03T03:26:50.486Z,4.40
2022-11-03T03:29:21.889Z,4.40
2022-11-03T03:31:53.940Z,4.40
2022-11-03T03:34:34.807Z,4.40
2022-11-03T03:37:03.879Z,4.40
2022-11-03T03:39:32.978Z,4.40
2022-11-03T03:42:00.979Z,4.50
2022-11-03T03:44:30.391Z,4.50
2022-11-03T03:46:59.979Z,4.50
2022-11-03T03:49:28.032Z,4.50
2022-11-03T03:51:56.054Z,4.50
2022-11-03T03:54:24.079Z,4.50
2022-11-03T03:56:54.652Z,4.50
2022-11-03T03:59:22.688Z,4.50
2022-11-03T04:01:52.159Z,4.40
2022-11-03T04:04:20.286Z,4.40
2022-11-03T04:06:48.436Z,4.40
2022-11-03T04:09:16.510Z,4.40
2022-11-03T04:12:01.830Z,4.40
2022-11-03T04:14:47.393Z,4.40
2022-11-03T04:17:37.817Z,4.40
2022-11-03T04:20:25.565Z,4.40
2022-11-03T04:22:53.563Z,4.40
2022-11-03T04:25:21.588Z,4.40
2022-11-03T04:27:49.588Z,4.40
2022-11-03T04:30:19.274Z,4.40
2022-11-03T04:32:49.547Z,4.40
2022-11-03T04:35:18.491Z,4.40
2022-11-03T04:37:47.990Z,4.40
2022-11-03T04:40:17.490Z,4.40
2022-11-03T04:42:45.761Z,4.40
2022-11-03T04:45:20.263Z,4.50
2022-11-03T04:47:49.610Z,4.50
2022-11-03T04:50:19.710Z,4.50
2022-11-03T04:52:47.994Z,4.50
2022-11-03T04:55:17.227Z,4.50
2022-11-03T04:57:45.517Z,4.50
2022-11-03T05:00:18.205Z,4.50
2022-11-03T05:02:49.096Z,4.50
2022-11-03T05:05:21.912Z,4.50
2022-11-03T05:07:50.459Z,4.50
2022-11-03T05:10:20.598Z,4.50
2022-11-03T05:12:48.594Z,4.50
2022-11-03T05:15:33.316Z,4.50
2022-11-03T05:18:01.353Z,4.60
2022-11-03T05:20:36.222Z,4.60
2022-11-03T05:23:05.276Z,4.70
2022-11-03T05:25:37.242Z,4.70
2022-11-03T05:28:06.987Z,4.80
2022-11-03T05:30:35.108Z,4.80
2022-11-03T05:33:03.395Z,4.80
2022-11-03T05:35:32.867Z,4.80
2022-11-03T05:38:00.884Z,4.90
2022-11-03T05:40:29.160Z,4.80
2022-11-03T05:42:58.429Z,4.80
2022-11-03T05:45:28.068Z,4.90
2022-11-03T05:47:56.571Z,4.80
2022-11-03T05:50:25.493Z,4.80
2022-11-03T05:53:05.499Z,4.80
2022-11-03T05:55:35.824Z,4.80
2022-11-03T05:58:08.467Z,4.80
2022-11-03T06:00:39.828Z,4.80
2022-11-03T06:03:11.159Z,4.80
2022-11-03T06:05:39.127Z,4.80
2022-11-03T06:08:14.328Z,4.70
2022-11-03T06:10:43.328Z,4.70
2022-11-03T06:13:14.930Z,4.60
2022-11-03T06:15:43.852Z,4.60
2022-11-03T06:18:17.720Z,4.70
2022-11-03T06:20:51.355Z,4.70
2022-11-03T06:23:20.933Z,4.70
2022-11-03T06:25:48.920Z,4.70
2022-11-03T06:28:21.213Z,4.70
2022-11-03T06:30:49.205Z,4.70
2022-11-03T06:33:21.468Z,4.60
2022-11-03T06:35:49.560Z,4.60
2022-11-03T06:38:20.950Z,4.60
2022-11-03T06:40:50.004Z,4.60
2022-11-03T06:43:22.568Z,4.60
2022-11-03T06:45:52.163Z,4.70
2022-11-03T06:48:27.479Z,4.70
2022-11-03T06:50:55.918Z,4.70
2022-11-03T06:53:27.778Z,4.70
2022-11-03T06:55:55.986Z,4.70
2022-11-03T06:58:29.668Z,4.80
2022-11-03T07:01:02.960Z,4.90
2022-11-03T07:03:33.428Z,5.10
2022-11-03T07:06:03.133Z,5.30
2022-11-03T07:08:33.667Z,5.40
2022-11-03T07:11:08.279Z,5.60
2022-11-03T07:13:36.279Z,5.70
2022-11-03T07:16:04.400Z,5.80
2022-11-03T07:18:34.502Z,6.00
2022-11-03T07:21:04.524Z,6.20
2022-11-03T07:23:33.879Z,6.30
2022-11-03T07:26:02.194Z,6.40
2022-11-03T07:28:32.936Z,6.60
2022-11-03T07:31:02.264Z,6.80
2022-11-03T07:33:31.470Z,6.90
2022-11-03T07:36:16.872Z,7.10
2022-11-03T07:38:47.401Z,7.20
2022-11-03T07:41:18.383Z,7.50
2022-11-03T07:43:49.445Z,7.70
2022-11-03T07:46:19.340Z,8.00
2022-11-03T07:48:47.963Z,8.10
2022-11-03T07:51:17.919Z,8.30
2022-11-03T07:53:47.664Z,8.40
2022-11-03T07:56:19.193Z,8.50
2022-11-03T07:58:47.313Z,8.70
2022-11-03T08:01:26.276Z,8.90
2022-11-03T08:03:55.117Z,9.10
2022-11-03T08:06:23.135Z,9.20
2022-11-03T08:08:52.500Z,9.40
2022-11-03T08:11:26.048Z,9.50
2022-11-03T08:13:57.115Z,9.70
2022-11-03T08:16:25.130Z,9.70
2022-11-03T08:18:53.117Z,9.70
2022-11-03T08:21:21.140Z,9.90
2022-11-03T08:23:49.153Z,10.00
2022-11-03T08:26:18.542Z,10.10
2022-11-03T08:28:46.539Z,10.20
2022-11-03T08:31:14.555Z,10.50
2022-11-03T08:33:42.600Z,10.60
2022-11-03T08:36:10.937Z,10.80
2022-11-03T08:38:39.047Z,10.90
2022-11-03T08:41:07.215Z,11.10
2022-11-03T08:43:36.883Z,11.20
2022-11-03T08:46:15.462Z,11.30
2022-11-03T08:48:45.641Z,11.40
2022-11-03T08:51:14.574Z,11.60
2022-11-03T08:53:43.203Z,11.70
2022-11-03T08:56:13.050Z,11.90
2022-11-03T08:58:44.679Z,12.10
2022-11-03T09:01:12.874Z,12.40
2022-11-03T09:03:41.098Z,12.20
2022-11-03T09:06:10.376Z,12.30
2022-11-03T09:11:26.472Z,12.30
2022-11-03T09:13:55.845Z,12.30
2022-11-03T09:16:23.847Z,12.30
2022-11-03T09:18:51.840Z,12.40
2022-11-03T09:21:19.862Z,12.40
2022-11-03T09:23:47.892Z,12.50
2022-11-03T09:26:16.020Z,12.40
2022-11-03T09:28:44.049Z,12.40
2022-11-03T09:31:13.878Z,12.60
2022-11-03T09:33:41.882Z,12.80
2022-11-03T09:36:10.158Z,13.10
2022-11-03T09:38:38.155Z,13.50
2022-11-03T09:41:13.648Z,13.70
2022-11-03T09:43:53.951Z,13.80
2022-11-03T09:46:23.323Z,14.10
2022-11-03T09:48:51.313Z,14.30
2022-11-03T09:51:20.712Z,14.40
2022-11-03T09:53:48.801Z,14.40
2022-11-03T09:56:17.869Z,14.50
2022-11-03T09:58:49.805Z,14.50
2022-11-03T10:01:19.549Z,14.80
2022-11-03T10:03:49.059Z,14.90
2022-11-03T10:06:17.667Z,14.80
2022-11-03T10:08:46.465Z,14.80
2022-11-03T10:11:15.078Z,14.90
2022-11-03T10:13:44.592Z,14.80
2022-11-03T10:16:15.136Z,14.80
2022-11-03T10:18:43.131Z,14.90
2022-11-03T10:21:16.473Z,14.80
2022-11-03T10:23:44.984Z,14.70
2022-11-03T10:26:13.834Z,14.60
2022-11-03T10:28:41.845Z,14.60
2022-11-03T10:31:19.772Z,14.50
2022-11-03T10:33:52.881Z,14.50
2022-11-03T10:36:26.372Z,14.40
2022-11-03T10:38:54.644Z,14.40
2022-11-03T10:41:23.311Z,14.50
2022-11-03T10:44:08.247Z,14.40
2022-11-03T10:46:50.339Z,14.60
2022-11-03T10:49:20.065Z,14.50
2022-11-03T10:51:51.007Z,14.60
2022-11-03T10:54:20.086Z,14.60
2022-11-03T10:56:48.232Z,14.60
2022-11-03T10:59:18.331Z,14.60
2022-11-03T11:01:46.424Z,14.60
2022-11-03T11:04:16.195Z,14.70
2022-11-03T11:06:44.263Z,14.70
2022-11-03T11:09:15.243Z,14.60
2022-11-03T11:12:01.699Z,14.70
2022-11-03T11:14:38.023Z,14.60
2022-11-03T11:17:06.398Z,14.50
2022-11-03T11:20:07.799Z,14.60
2022-11-03T11:22:35.816Z,14.50
2022-11-03T11:25:05.446Z,14.60
2022-11-03T11:27:58.779Z,14.60
2022-11-03T11:31:03.913Z,14.60
2022-11-03T11:33:33.145Z,14.60
2022-11-03T11:36:25.058Z,14.50
2022-11-03T11:39:02.985Z,14.60
2022-11-03T11:42:09.094Z,14.40
2022-11-03T11:45:00.072Z,14.50
2022-11-03T11:47:35.590Z,14.40
2022-11-03T11:50:23.935Z,14.30
2022-11-03T11:52:56.597Z,14.30
2022-11-03T11:55:29.952Z,14.30
2022-11-03T11:57:59.710Z,14.30
2022-11-03T12:00:28.884Z,14.30
2022-11-03T12:02:57.370Z,14.30
2022-11-03T12:05:26.306Z,14.40
2022-11-03T12:07:54.696Z,14.30
2022-11-03T12:10:23.922Z,14.30
2022-11-03T12:12:51.914Z,14.30
2022-11-03T12:15:54.228Z,14.30
2022-11-03T12:18:36.569Z,14.30
2022-11-03T12:21:08.034Z,14.30
2022-11-03T12:23:41.261Z,14.20
2022-11-03T12:26:16.637Z,14.20
2022-11-03T12:28:44.659Z,14.20
2022-11-03T12:31:14.032Z,14.20
2022-11-03T12:33:42.037Z,14.20
2022-11-03T12:36:10.308Z,14.20
2022-11-03T12:38:38.315Z,14.20
2022-11-03T12:41:20.274Z,14.10
2022-11-03T12:43:48.767Z,14.10
2022-11-03T12:46:18.444Z,14.10
2022-11-03T12:48:47.327Z,14.10
2022-11-03T12:51:15.781Z,14.10
2022-11-03T12:53:43.923Z,14.00
2022-11-03T12:56:12.102Z,14.00
2022-11-03T12:58:40.100Z,13.90
2022-11-03T13:01:08.413Z,13.90
2022-11-03T13:03:37.912Z,13.90
2022-11-03T13:06:10.034Z,14.00
2022-11-03T13:08:38.105Z,14.00
2022-11-03T13:11:26.244Z,14.00
2022-11-03T13:13:54.303Z,14.00
2022-11-03T13:16:22.373Z,14.00
2022-11-03T13:18:51.740Z,14.10
2022-11-03T13:21:19.751Z,14.10
2022-11-03T13:23:48.073Z,14.10
2022-11-03T13:26:16.104Z,14.00
2022-11-03T13:28:44.100Z,14.00
2022-11-03T13:31:12.814Z,14.00
2022-11-03T13:33:40.937Z,14.00
2022-11-03T13:36:10.515Z,14.00
2022-11-03T13:38:38.590Z,13.90
2022-11-03T13:41:08.998Z,13.90
2022-11-03T13:43:37.464Z,13.90
2022-11-03T13:46:05.593Z,13.80
2022-11-03T13:51:23.065Z,13.70
2022-11-03T13:59:27.917Z,13.50
2022-11-03T14:04:45.009Z,13.40
2022-11-03T14:07:14.545Z,13.40
2022-11-03T14:09:42.801Z,13.40
2022-11-03T14:12:28.491Z,13.30
2022-11-03T14:14:56.507Z,13.20
2022-11-03T14:17:24.702Z,13.20
2022-11-03T14:19:55.567Z,13.10
2022-11-03T14:22:30.383Z,13.10
2022-11-03T14:24:58.406Z,13.00
2022-11-03T14:27:26.566Z,13.00
2022-11-03T14:29:54.817Z,13.00
2022-11-03T14:32:22.817Z,13.00
2022-11-03T14:34:50.929Z,12.90
2022-11-03T14:37:19.108Z,12.90
2022-11-03T14:39:48.526Z,12.80
2022-11-03T14:42:16.608Z,12.80
2022-11-03T14:44:45.355Z,12.70
2022-11-03T14:47:15.310Z,12.70
2022-11-03T14:49:43.361Z,12.60
2022-11-03T14:52:11.480Z,12.50
2022-11-03T14:54:39.494Z,12.50
2022-11-03T14:57:09.727Z,12.40
2022-11-03T14:59:37.900Z,12.30
2022-11-03T15:02:06.193Z,12.30
2022-11-03T15:04:34.459Z,12.20
2022-11-03T15:07:02.457Z,12.20
2022-11-03T15:09:30.469Z,12.20
2022-11-03T15:11:58.465Z,12.10
2022-11-03T15:14:28.153Z,12.10
2022-11-03T15:16:56.142Z,12.00
2022-11-03T15:19:24.141Z,12.00
2022-11-03T15:21:52.124Z,11.90
2022-11-03T15:27:08.079Z,11.80
2022-11-03T15:29:37.632Z,11.70
2022-11-03T15:32:06.866Z,11.60
2022-11-03T15:34:34.882Z,11.60
2022-11-03T15:37:02.850Z,11.60
2022-11-03T15:39:31.212Z,11.50
2022-11-03T15:42:00.287Z,11.40
2022-11-03T15:44:28.364Z,11.30
2022-11-03T15:46:57.714Z,11.30
2022-11-03T15:49:25.731Z,11.20
2022-11-03T15:51:53.730Z,11.20
2022-11-03T15:54:21.698Z,11.10
2022-11-03T15:56:50.104Z,11.10
2022-11-03T15:59:19.066Z,11.10
2022-11-03T16:01:47.212Z,11.00
2022-11-03T16:04:17.297Z,11.00
2022-11-03T16:09:33.291Z,11.00
2022-11-03T16:12:01.344Z,10.90
2022-11-03T16:14:30.463Z,10.90
2022-11-03T16:16:58.630Z,10.90
2022-11-03T16:19:27.950Z,10.80
2022-11-03T16:21:55.961Z,10.80
2022-11-03T16:24:29.633Z,10.80
2022-11-03T16:27:03.067Z,10.80
2022-11-03T16:29:31.050Z,10.80
2022-11-03T16:31:59.059Z,10.80
2022-11-03T16:34:28.486Z,10.80
2022-11-03T16:36:56.892Z,10.70
2022-11-03T16:39:24.893Z,10.70
2022-11-03T16:41:54.857Z,10.70
2022-11-03T16:44:23.104Z,10.70
2022-11-03T16:46:51.175Z,10.60
2022-11-03T16:49:19.150Z,10.60
2022-11-03T16:51:48.545Z,10.60
2022-11-03T16:54:16.552Z,10.60
2022-11-03T16:56:46.165Z,10.60
2022-11-03T16:59:15.571Z,10.60
2022-11-03T17:01:43.644Z,10.60
2022-11-03T17:04:11.864Z,10.60
2022-11-03T17:06:39.866Z,10.60
2022-11-03T17:09:10.070Z,10.50
2022-11-03T17:11:38.086Z,10.50
2022-11-03T17:14:08.043Z,10.60
2022-11-03T17:16:36.130Z,10.50
2022-11-03T17:19:04.281Z,10.50
2022-11-03T17:21:32.477Z,10.50
2022-11-03T17:24:00.567Z,10.50
2022-11-03T17:26:38.937Z,10.60
2022-11-03T17:29:12.209Z,10.50
2022-11-03T17:31:40.217Z,10.50
2022-11-03T17:34:08.935Z,10.60
2022-11-03T17:36:36.939Z,10.50
2022-11-03T17:39:04.932Z,10.50
2022-11-03T17:41:35.073Z,10.50
2022-11-03T17:44:03.058Z,10.60
2022-11-03T17:46:31.068Z,10.60
2022-11-03T17:48:59.050Z,10.60
2022-11-03T17:51:27.059Z,10.60
2022-11-03T17:53:55.027Z,10.70
2022-11-03T17:56:30.171Z,10.60
2022-11-03T17:59:00.056Z,10.60
2022-11-03T18:01:28.272Z,10.60
2022-11-03T18:03:56.311Z,10.60
2022-11-03T18:06:25.487Z,10.60
2022-11-03T18:08:53.471Z,10.60
2022-11-03T18:11:42.967Z,10.70
2022-11-03T18:14:12.295Z,10.70
2022-11-03T18:16:40.663Z,10.70
2022-11-03T18:19:11.069Z,10.70
2022-11-03T18:21:39.072Z,10.70
2022-11-03T18:24:11.152Z,10.70
2022-11-03T18:26:39.163Z,10.70
2022-11-03T18:31:42.902Z,10.70
2022-11-03T18:34:14.306Z,10.70
2022-11-03T18:36:42.323Z,10.70
2022-11-03T18:39:12.357Z,10.70
2022-11-03T18:41:40.488Z,10.70
2022-11-03T18:44:16.061Z,10.70
2022-11-03T18:46:45.452Z,10.70
2022-11-03T18:49:13.432Z,10.70
2022-11-03T18:51:41.879Z,10.70
2022-11-03T18:54:10.842Z,10.60
2022-11-03T18:56:38.854Z,10.60
2022-11-03T18:59:06.837Z,10.60
2022-11-03T19:01:35.130Z,10.70
2022-11-03T19:04:04.778Z,10.60
2022-11-03T19:06:32.968Z,10.60
2022-11-03T19:09:01.883Z,10.70
2022-11-03T19:11:30.129Z,10.70
2022-11-03T19:13:58.110Z,10.70
2022-11-03T19:16:26.112Z,10.60
2022-11-03T19:18:54.092Z,10.60
2022-11-03T19:21:24.447Z,10.60
2022-11-03T19:23:58.106Z,10.60
2022-11-03T19:26:29.413Z,10.60
2022-11-03T19:28:58.565Z,10.60
2022-11-03T19:31:28.486Z,10.70
2022-11-03T19:33:56.454Z,10.70
2022-11-03T19:36:25.864Z,10.70
2022-11-03T19:38:53.844Z,10.70
2022-11-03T19:41:39.538Z,10.70
2022-11-03T19:44:10.054Z,10.70
2022-11-03T19:46:38.220Z,10.60
2022-11-03T19:49:06.222Z,10.60
2022-11-03T19:51:36.948Z,10.60
2022-11-03T19:54:05.321Z,10.60
2022-11-03T19:56:33.318Z,10.60
2022-11-03T19:59:02.668Z,10.60
2022-11-03T20:01:30.772Z,10.60
2022-11-03T20:03:58.854Z,10.60
2022-11-03T20:06:26.854Z,10.60
2022-11-03T20:08:56.188Z,10.60
2022-11-03T20:11:24.542Z,10.60
2022-11-03T20:13:52.497Z,10.50
2022-11-03T20:16:20.500Z,10.50
2022-11-03T20:18:48.934Z,10.50
2022-11-03T20:21:17.634Z,10.50
2022-11-03T20:23:45.789Z,10.50
2022-11-03T20:26:16.512Z,10.50
2022-11-03T20:28:44.578Z,10.40
2022-11-03T20:31:12.640Z,10.40
2022-11-03T20:33:40.658Z,10.40
2022-11-03T20:36:14.447Z,10.40
2022-11-03T20:38:42.460Z,10.40
2022-11-03T20:41:12.986Z,10.40
2022-11-03T20:43:43.948Z,10.40
2022-11-03T20:46:22.859Z,10.40
2022-11-03T20:48:50.878Z,10.40
2022-11-03T20:51:19.273Z,10.30
2022-11-03T20:53:47.741Z,10.20
2022-11-03T20:56:19.637Z,10.30
2022-11-03T20:58:49.364Z,10.20
2022-11-03T21:01:18.399Z,10.20
2022-11-03T21:03:58.722Z,10.20
2022-11-03T21:06:27.718Z,10.10
2022-11-03T21:08:55.813Z,10.10
2022-11-03T21:11:24.439Z,10.10
2022-11-03T21:13:54.571Z,10.10
2022-11-03T21:16:40.712Z,9.90
2022-11-03T21:19:33.424Z,9.90
2022-11-03T21:22:01.430Z,9.90
2022-11-03T21:24:29.431Z,9.90
2022-11-03T21:26:57.444Z,9.80
2022-11-03T21:29:53.372Z,9.80
2022-11-03T21:32:15.620Z,9.70
2022-11-03T21:34:44.006Z,9.70
2022-11-03T21:37:13.181Z,9.70
2022-11-03T21:39:41.164Z,9.60
2022-11-03T21:42:28.090Z,9.60
2022-11-03T21:44:57.748Z,9.50
2022-11-03T21:47:25.894Z,9.50
2022-11-03T21:49:52.966Z,9.50
2022-11-03T21:52:31.842Z,9.40
2022-11-03T21:55:00.354Z,9.40
2022-11-03T21:57:28.516Z,9.40
2022-11-03T21:59:58.966Z,9.40
2022-11-03T22:02:30.087Z,9.30
2022-11-03T22:04:58.664Z,9.30
2022-11-03T22:07:26.702Z,9.30
2022-11-03T22:09:54.680Z,9.20
2022-11-03T22:12:23.462Z,9.20
2022-11-03T22:15:08.838Z,9.20
2022-11-03T22:17:38.191Z,9.20
2022-11-03T22:20:24.183Z,9.20
2022-11-03T22:23:09.512Z,9.20
2022-11-03T22:25:55.004Z,9.20
2022-11-03T22:28:22.989Z,9.10
2022-11-03T22:31:08.632Z,9.10
2022-11-03T22:33:57.942Z,9.10
2022-11-03T22:36:24.962Z,9.10
2022-11-03T22:39:10.689Z,9.00
2022-11-03T22:41:56.278Z,9.00
2022-11-03T22:44:41.596Z,9.00
2022-11-03T22:47:11.224Z,8.90
2022-11-03T22:49:41.939Z,8.90
2022-11-03T22:52:11.249Z,8.80
2022-11-03T22:54:38.246Z,8.80
2022-11-03T22:57:07.721Z,8.80
2022-11-03T22:59:35.704Z,8.80
2022-11-03T23:02:03.810Z,8.70
2022-11-03T23:04:32.025Z,8.80
2022-11-03T23:07:01.379Z,8.70
2022-11-03T23:09:29.442Z,8.70
2022-11-03T23:11:57.438Z,8.70
2022-11-03T23:14:45.551Z,8.70
2022-11-03T23:17:13.552Z,8.70
2022-11-03T23:19:59.008Z,8.60
2022-11-03T23:22:28.366Z,8.60
2022-11-03T23:25:01.465Z,8.60
2022-11-03T23:27:29.534Z,8.60
2022-11-03T23:29:57.519Z,8.60
2022-11-03T23:32:25.523Z,8.60
2022-11-03T23:34:53.543Z,8.60
2022-11-03T23:37:21.541Z,8.60
2022-11-03T23:39:50.873Z,8.70
2022-11-03T23:42:18.880Z,8.60
2022-11-03T23:45:04.350Z,8.60
2022-11-03T23:47:49.639Z,8.50
2022-11-03T23:50:17.715Z,8.50
2022-11-03T23:52:45.727Z,8.50
2022-11-03T23:55:15.151Z,8.50
2022-11-03T23:58:00.443Z,8.40
